sensor_id;sensor_type;location;lat;lon;timestamp;P1;durP1;ratioP1;P2;durP2;ratioP2
13071;SDS011;6602;58.934;11.166;2023-05-02T00:04:13;6.93;;;3.43;;
13071;SDS011;6602;58.934;11.166;2023-05-02T00:09:13;5.93;;;3.40;;
13071;SDS011;6602;58.934;11.166;2023-05-02T00:14:17;4.43;;;3.20;;
13071;SDS011;6602;58.934;11.166;2023-05-02T00:19:30;4.87;;;3.10;;
13071;SDS011;6602;58.934;11.166;2023-05-02T00:24:37;6.03;;;3.20;;
13071;SDS011;6602;58.934;11.166;2023-05-02T00:29:44;5.77;;;3.07;;
13071;SDS011;6602;58.934;11.166;2023-05-02T00:34:59;6.40;;;3.20;;
13071;SDS011;6602;58.934;11.166;2023-05-02T00:40:08;6.17;;;3.57;;
13071;SDS011;6602;58.934;11.166;2023-05-02T00:45:12;6.90;;;3.00;;
13071;SDS011;6602;58.934;11.166;2023-05-02T00:50:14;4.40;;;3.00;;
13071;SDS011;6602;58.934;11.166;2023-05-02T00:55:16;4.47;;;2.70;;
13071;SDS011;6602;58.934;11.166;2023-05-02T01:00:24;4.90;;;2.57;;
13071;SDS011;6602;58.934;11.166;2023-05-02T01:05:47;3.60;;;2.73;;
13071;SDS011;6602;58.934;11.166;2023-05-02T01:11:13;4.87;;;3.23;;
13071;SDS011;6602;58.934;11.166;2023-05-02T01:16:25;4.67;;;2.90;;
13071;SDS011;6602;58.934;11.166;2023-05-02T01:21:30;4.00;;;2.50;;
13071;SDS011;6602;58.934;11.166;2023-05-02T01:26:36;3.90;;;2.60;;
13071;SDS011;6602;58.934;11.166;2023-05-02T01:31:48;2.60;;;1.90;;
13071;SDS011;6602;58.934;11.166;2023-05-02T01:36:52;7.07;;;2.03;;
13071;SDS011;6602;58.934;11.166;2023-05-02T01:41:56;2.90;;;2.10;;
13071;SDS011;6602;58.934;11.166;2023-05-02T01:46:58;4.43;;;2.37;;
13071;SDS011;6602;58.934;11.166;2023-05-02T01:52:04;3.93;;;2.03;;
13071;SDS011;6602;58.934;11.166;2023-05-02T01:57:08;4.50;;;2.27;;
13071;SDS011;6602;58.934;11.166;2023-05-02T02:02:11;5.87;;;2.93;;
13071;SDS011;6602;58.934;11.166;2023-05-02T02:07:16;2.40;;;1.80;;
13071;SDS011;6602;58.934;11.166;2023-05-02T02:17:29;4.53;;;1.93;;
13071;SDS011;6602;58.934;11.166;2023-05-02T02:22:55;3.53;;;1.90;;
13071;SDS011;6602;58.934;11.166;2023-05-02T02:28:01;2.37;;;1.87;;
13071;SDS011;6602;58.934;11.166;2023-05-02T02:33:05;3.23;;;1.50;;
13071;SDS011;6602;58.934;11.166;2023-05-02T02:59:10;3.43;;;1.77;;
13071;SDS011;6602;58.934;11.166;2023-05-02T03:04:15;2.67;;;1.60;;
13071;SDS011;6602;58.934;11.166;2023-05-02T03:09:18;3.23;;;1.50;;
13071;SDS011;6602;58.934;11.166;2023-05-02T03:14:37;1.57;;;1.20;;
13071;SDS011;6602;58.934;11.166;2023-05-02T03:19:45;2.10;;;1.50;;
13071;SDS011;6602;58.934;11.166;2023-05-02T03:25:05;2.40;;;1.60;;
13071;SDS011;6602;58.934;11.166;2023-05-02T03:30:08;3.83;;;1.50;;
13071;SDS011;6602;58.934;11.166;2023-05-02T03:35:13;1.93;;;1.33;;
13071;SDS011;6602;58.934;11.166;2023-05-02T03:40:20;2.43;;;1.40;;
13071;SDS011;6602;58.934;11.166;2023-05-02T03:45:26;4.37;;;1.80;;
13071;SDS011;6602;58.934;11.166;2023-05-02T03:50:30;1.87;;;1.23;;
13071;SDS011;6602;58.934;11.166;2023-05-02T03:55:37;3.70;;;1.27;;
13071;SDS011;6602;58.934;11.166;2023-05-02T04:00:42;2.80;;;1.33;;
13071;SDS011;6602;58.934;11.166;2023-05-02T04:05:48;2.03;;;1.40;;
13071;SDS011;6602;58.934;11.166;2023-05-02T04:11:02;3.43;;;1.23;;
13071;SDS011;6602;58.934;11.166;2023-05-02T04:16:03;3.20;;;1.20;;
13071;SDS011;6602;58.934;11.166;2023-05-02T04:21:06;4.63;;;1.43;;
13071;SDS011;6602;58.934;11.166;2023-05-02T04:26:09;1.10;;;1.00;;
13071;SDS011;6602;58.934;11.166;2023-05-02T04:31:10;1.00;;;0.87;;
13071;SDS011;6602;58.934;11.166;2023-05-02T04:36:20;1.70;;;1.60;;
13071;SDS011;6602;58.934;11.166;2023-05-02T04:41:20;3.87;;;1.37;;
13071;SDS011;6602;58.934;11.166;2023-05-02T04:46:31;1.50;;;1.10;;
13071;SDS011;6602;58.934;11.166;2023-05-02T04:51:32;1.20;;;1.03;;
13071;SDS011;6602;58.934;11.166;2023-05-02T04:56:33;3.13;;;1.10;;
13071;SDS011;6602;58.934;11.166;2023-05-02T05:01:34;1.93;;;1.13;;
13071;SDS011;6602;58.934;11.166;2023-05-02T05:06:44;2.20;;;1.20;;
13071;SDS011;6602;58.934;11.166;2023-05-02T05:11:47;1.70;;;1.27;;
13071;SDS011;6602;58.934;11.166;2023-05-02T05:17:03;2.43;;;1.10;;
13071;SDS011;6602;58.934;11.166;2023-05-02T05:22:04;1.47;;;0.70;;
13071;SDS011;6602;58.934;11.166;2023-05-02T05:27:21;1.10;;;0.90;;
13071;SDS011;6602;58.934;11.166;2023-05-02T05:32:22;1.73;;;1.00;;
13071;SDS011;6602;58.934;11.166;2023-05-02T05:37:25;1.20;;;0.80;;
13071;SDS011;6602;58.934;11.166;2023-05-02T05:42:31;1.40;;;0.93;;
13071;SDS011;6602;58.934;11.166;2023-05-02T05:47:32;1.97;;;1.10;;
13071;SDS011;6602;58.934;11.166;2023-05-02T05:52:36;1.93;;;1.10;;
13071;SDS011;6602;58.934;11.166;2023-05-02T05:57:40;1.57;;;0.90;;
13071;SDS011;6602;58.934;11.166;2023-05-02T06:02:41;1.13;;;0.70;;
13071;SDS011;6602;58.934;11.166;2023-05-02T06:07:44;2.00;;;0.90;;
13071;SDS011;6602;58.934;11.166;2023-05-02T06:12:45;1.33;;;0.90;;
13071;SDS011;6602;58.934;11.166;2023-05-02T06:17:46;0.83;;;0.70;;
13071;SDS011;6602;58.934;11.166;2023-05-02T06:22:47;4.37;;;1.10;;
13071;SDS011;6602;58.934;11.166;2023-05-02T06:28:00;1.47;;;0.90;;
13071;SDS011;6602;58.934;11.166;2023-05-02T06:33:02;4.17;;;0.73;;
13071;SDS011;6602;58.934;11.166;2023-05-02T06:38:04;2.57;;;0.80;;
13071;SDS011;6602;58.934;11.166;2023-05-02T06:43:05;2.90;;;1.40;;
13071;SDS011;6602;58.934;11.166;2023-05-02T06:48:14;0.80;;;0.70;;
13071;SDS011;6602;58.934;11.166;2023-05-02T06:53:17;2.20;;;0.93;;
13071;SDS011;6602;58.934;11.166;2023-05-02T06:58:18;1.07;;;0.80;;
13071;SDS011;6602;58.934;11.166;2023-05-02T07:03:23;2.90;;;1.43;;
13071;SDS011;6602;58.934;11.166;2023-05-02T07:08:24;2.13;;;0.80;;
13071;SDS011;6602;58.934;11.166;2023-05-02T07:13:25;2.42;;;1.17;;
13071;SDS011;6602;58.934;11.166;2023-05-02T07:18:26;1.17;;;0.52;;
13071;SDS011;6602;58.934;11.166;2023-05-02T07:23:27;1.80;;;0.70;;
13071;SDS011;6602;58.934;11.166;2023-05-02T07:28:28;1.77;;;0.60;;
13071;SDS011;6602;58.934;11.166;2023-05-02T07:33:29;1.70;;;0.70;;
13071;SDS011;6602;58.934;11.166;2023-05-02T07:38:29;0.77;;;0.70;;
13071;SDS011;6602;58.934;11.166;2023-05-02T07:43:49;0.50;;;0.50;;
13071;SDS011;6602;58.934;11.166;2023-05-02T07:48:49;2.60;;;0.80;;
13071;SDS011;6602;58.934;11.166;2023-05-02T07:53:52;2.07;;;0.70;;
13071;SDS011;6602;58.934;11.166;2023-05-02T07:58:57;1.53;;;0.63;;
13071;SDS011;6602;58.934;11.166;2023-05-02T08:03:58;0.50;;;0.50;;
13071;SDS011;6602;58.934;11.166;2023-05-02T08:08:59;2.40;;;0.80;;
13071;SDS011;6602;58.934;11.166;2023-05-02T08:14:00;1.58;;;0.63;;
13071;SDS011;6602;58.934;11.166;2023-05-02T08:19:01;0.90;;;0.60;;
13071;SDS011;6602;58.934;11.166;2023-05-02T08:24:02;1.67;;;0.67;;
13071;SDS011;6602;58.934;11.166;2023-05-02T08:29:03;1.33;;;0.70;;
13071;SDS011;6602;58.934;11.166;2023-05-02T08:34:04;0.40;;;0.40;;
13071;SDS011;6602;58.934;11.166;2023-05-02T08:39:05;0.83;;;0.60;;
13071;SDS011;6602;58.934;11.166;2023-05-02T08:44:07;0.83;;;0.50;;
13071;SDS011;6602;58.934;11.166;2023-05-02T08:49:11;1.17;;;0.60;;
13071;SDS011;6602;58.934;11.166;2023-05-02T08:54:15;0.67;;;0.67;;
13071;SDS011;6602;58.934;11.166;2023-05-02T08:59:17;0.53;;;0.40;;
13071;SDS011;6602;58.934;11.166;2023-05-02T09:04:29;1.40;;;0.63;;
13071;SDS011;6602;58.934;11.166;2023-05-02T09:09:39;1.27;;;0.70;;
13071;SDS011;6602;58.934;11.166;2023-05-02T09:14:41;1.63;;;0.73;;
13071;SDS011;6602;58.934;11.166;2023-05-02T09:19:43;0.67;;;0.67;;
13071;SDS011;6602;58.934;11.166;2023-05-02T09:24:52;0.60;;;0.60;;
13071;SDS011;6602;58.934;11.166;2023-05-02T09:35:18;3.10;;;0.93;;
13071;SDS011;6602;58.934;11.166;2023-05-02T09:40:23;1.00;;;0.70;;
13071;SDS011;6602;58.934;11.166;2023-05-02T09:45:25;1.90;;;0.60;;
13071;SDS011;6602;58.934;11.166;2023-05-02T09:50:32;0.93;;;0.73;;
13071;SDS011;6602;58.934;11.166;2023-05-02T09:55:37;2.03;;;0.60;;
13071;SDS011;6602;58.934;11.166;2023-05-02T10:00:39;0.60;;;0.60;;
13071;SDS011;6602;58.934;11.166;2023-05-02T10:05:54;0.83;;;0.60;;
13071;SDS011;6602;58.934;11.166;2023-05-02T10:10:56;0.90;;;0.80;;
13071;SDS011;6602;58.934;11.166;2023-05-02T10:15:59;0.90;;;0.67;;
13071;SDS011;6602;58.934;11.166;2023-05-02T10:21:04;1.37;;;0.73;;
13071;SDS011;6602;58.934;11.166;2023-05-02T10:26:11;1.57;;;1.03;;
13071;SDS011;6602;58.934;11.166;2023-05-02T10:31:14;1.20;;;0.70;;
13071;SDS011;6602;58.934;11.166;2023-05-02T10:36:19;1.47;;;0.50;;
13071;SDS011;6602;58.934;11.166;2023-05-02T10:41:23;0.67;;;0.50;;
13071;SDS011;6602;58.934;11.166;2023-05-02T10:51:37;1.60;;;0.90;;
13071;SDS011;6602;58.934;11.166;2023-05-02T11:02:51;0.70;;;0.50;;
13071;SDS011;6602;58.934;11.166;2023-05-02T11:07:30;2.00;;;0.90;;
13071;SDS011;6602;58.934;11.166;2023-05-02T11:12:44;1.07;;;0.57;;
13071;SDS011;6602;58.934;11.166;2023-05-02T11:18:09;0.77;;;0.50;;
13071;SDS011;6602;58.934;11.166;2023-05-02T11:33:59;1.13;;;0.50;;
13071;SDS011;6602;58.934;11.166;2023-05-02T11:39:02;1.37;;;0.60;;
13071;SDS011;6602;58.934;11.166;2023-05-02T11:44:04;0.60;;;0.60;;
13071;SDS011;6602;58.934;11.166;2023-05-02T11:49:05;0.37;;;0.33;;
13071;SDS011;6602;58.934;11.166;2023-05-02T11:54:22;0.40;;;0.40;;
13071;SDS011;6602;58.934;11.166;2023-05-02T11:59:23;0.57;;;0.30;;
13071;SDS011;6602;58.934;11.166;2023-05-02T12:04:24;1.20;;;0.50;;
13071;SDS011;6602;58.934;11.166;2023-05-02T12:09:25;3.00;;;0.47;;
13071;SDS011;6602;58.934;11.166;2023-05-02T12:14:27;1.40;;;0.50;;
13071;SDS011;6602;58.934;11.166;2023-05-02T12:19:28;0.50;;;0.30;;
13071;SDS011;6602;58.934;11.166;2023-05-02T12:24:32;1.23;;;0.50;;
13071;SDS011;6602;58.934;11.166;2023-05-02T12:29:42;0.60;;;0.40;;
13071;SDS011;6602;58.934;11.166;2023-05-02T12:34:45;0.50;;;0.40;;
13071;SDS011;6602;58.934;11.166;2023-05-02T12:39:46;1.93;;;0.47;;
13071;SDS011;6602;58.934;11.166;2023-05-02T12:44:47;1.40;;;0.50;;
13071;SDS011;6602;58.934;11.166;2023-05-02T12:49:51;0.53;;;0.50;;
13071;SDS011;6602;58.934;11.166;2023-05-02T12:54:54;0.50;;;0.40;;
13071;SDS011;6602;58.934;11.166;2023-05-02T13:00:18;0.70;;;0.57;;
13071;SDS011;6602;58.934;11.166;2023-05-02T13:05:19;2.13;;;0.70;;
13071;SDS011;6602;58.934;11.166;2023-05-02T13:10:20;1.27;;;0.53;;
13071;SDS011;6602;58.934;11.166;2023-05-02T13:15:22;0.70;;;0.50;;
13071;SDS011;6602;58.934;11.166;2023-05-02T13:20:22;2.13;;;1.30;;
13071;SDS011;6602;58.934;11.166;2023-05-02T13:25:26;2.20;;;0.90;;
13071;SDS011;6602;58.934;11.166;2023-05-02T13:30:33;0.67;;;0.50;;
13071;SDS011;6602;58.934;11.166;2023-05-02T13:35:38;0.70;;;0.60;;
13071;SDS011;6602;58.934;11.166;2023-05-02T13:40:39;1.10;;;0.70;;
13071;SDS011;6602;58.934;11.166;2023-05-02T13:45:41;1.33;;;0.73;;
13071;SDS011;6602;58.934;11.166;2023-05-02T13:50:42;1.70;;;1.00;;
13071;SDS011;6602;58.934;11.166;2023-05-02T13:55:46;3.23;;;1.30;;
13071;SDS011;6602;58.934;11.166;2023-05-02T14:00:56;2.43;;;0.87;;
13071;SDS011;6602;58.934;11.166;2023-05-02T14:05:57;3.57;;;1.10;;
13071;SDS011;6602;58.934;11.166;2023-05-02T14:11:00;1.60;;;0.90;;
13071;SDS011;6602;58.934;11.166;2023-05-02T14:16:04;3.00;;;0.87;;
13071;SDS011;6602;58.934;11.166;2023-05-02T14:21:05;2.17;;;0.80;;
13071;SDS011;6602;58.934;11.166;2023-05-02T14:26:09;1.70;;;0.93;;
13071;SDS011;6602;58.934;11.166;2023-05-02T14:31:10;0.87;;;0.50;;
13071;SDS011;6602;58.934;11.166;2023-05-02T14:36:11;1.20;;;0.60;;
13071;SDS011;6602;58.934;11.166;2023-05-02T14:41:12;1.07;;;0.77;;
13071;SDS011;6602;58.934;11.166;2023-05-02T14:46:18;4.27;;;1.00;;
13071;SDS011;6602;58.934;11.166;2023-05-02T14:51:19;4.53;;;0.60;;
13071;SDS011;6602;58.934;11.166;2023-05-02T14:56:23;4.50;;;1.80;;
13071;SDS011;6602;58.934;11.166;2023-05-02T15:01:28;3.03;;;0.70;;
13071;SDS011;6602;58.934;11.166;2023-05-02T15:06:30;3.53;;;0.73;;
13071;SDS011;6602;58.934;11.166;2023-05-02T15:11:32;2.40;;;0.57;;
13071;SDS011;6602;58.934;11.166;2023-05-02T15:16:33;2.50;;;0.60;;
13071;SDS011;6602;58.934;11.166;2023-05-02T15:21:38;3.93;;;0.70;;
13071;SDS011;6602;58.934;11.166;2023-05-02T15:26:39;1.97;;;0.60;;
13071;SDS011;6602;58.934;11.166;2023-05-02T15:31:40;3.63;;;0.60;;
13071;SDS011;6602;58.934;11.166;2023-05-02T15:36:41;2.47;;;0.90;;
13071;SDS011;6602;58.934;11.166;2023-05-02T15:41:42;1.23;;;0.60;;
13071;SDS011;6602;58.934;11.166;2023-05-02T15:46:46;3.70;;;1.40;;
13071;SDS011;6602;58.934;11.166;2023-05-02T15:51:48;1.33;;;0.57;;
13071;SDS011;6602;58.934;11.166;2023-05-02T15:56:49;2.67;;;0.87;;
13071;SDS011;6602;58.934;11.166;2023-05-02T16:01:52;2.10;;;1.00;;
13071;SDS011;6602;58.934;11.166;2023-05-02T16:06:54;4.80;;;0.87;;
13071;SDS011;6602;58.934;11.166;2023-05-02T16:11:55;5.03;;;0.90;;
13071;SDS011;6602;58.934;11.166;2023-05-02T16:17:05;4.03;;;0.90;;
13071;SDS011;6602;58.934;11.166;2023-05-02T16:22:06;4.80;;;1.07;;
13071;SDS011;6602;58.934;11.166;2023-05-02T16:27:07;2.47;;;0.77;;
13071;SDS011;6602;58.934;11.166;2023-05-02T16:32:15;3.43;;;0.77;;
13071;SDS011;6602;58.934;11.166;2023-05-02T16:37:16;4.80;;;0.80;;
13071;SDS011;6602;58.934;11.166;2023-05-02T16:42:16;3.37;;;0.87;;
13071;SDS011;6602;58.934;11.166;2023-05-02T16:47:17;3.83;;;0.80;;
13071;SDS011;6602;58.934;11.166;2023-05-02T16:52:18;0.90;;;0.70;;
13071;SDS011;6602;58.934;11.166;2023-05-02T16:57:22;2.83;;;0.90;;
13071;SDS011;6602;58.934;11.166;2023-05-02T17:02:23;3.87;;;1.17;;
13071;SDS011;6602;58.934;11.166;2023-05-02T17:07:26;4.13;;;0.90;;
13071;SDS011;6602;58.934;11.166;2023-05-02T17:12:27;2.93;;;1.00;;
13071;SDS011;6602;58.934;11.166;2023-05-02T17:17:28;6.63;;;1.23;;
13071;SDS011;6602;58.934;11.166;2023-05-02T17:22:29;6.17;;;1.40;;
13071;SDS011;6602;58.934;11.166;2023-05-02T17:27:31;5.93;;;0.90;;
13071;SDS011;6602;58.934;11.166;2023-05-02T17:32:32;3.70;;;1.50;;
13071;SDS011;6602;58.934;11.166;2023-05-02T17:37:34;7.07;;;1.20;;
13071;SDS011;6602;58.934;11.166;2023-05-02T17:42:49;6.90;;;1.57;;
13071;SDS011;6602;58.934;11.166;2023-05-02T17:48:05;3.80;;;0.80;;
13071;SDS011;6602;58.934;11.166;2023-05-02T17:53:06;5.53;;;1.00;;
13071;SDS011;6602;58.934;11.166;2023-05-02T17:58:14;5.77;;;1.67;;
13071;SDS011;6602;58.934;11.166;2023-05-02T18:03:16;4.77;;;0.93;;
13071;SDS011;6602;58.934;11.166;2023-05-02T18:08:17;4.77;;;0.90;;
13071;SDS011;6602;58.934;11.166;2023-05-02T18:13:28;4.47;;;1.20;;
13071;SDS011;6602;58.934;11.166;2023-05-02T18:18:29;5.43;;;0.83;;
13071;SDS011;6602;58.934;11.166;2023-05-02T18:23:31;6.67;;;1.57;;
13071;SDS011;6602;58.934;11.166;2023-05-02T18:28:51;3.00;;;1.30;;
13071;SDS011;6602;58.934;11.166;2023-05-02T18:33:55;4.17;;;1.37;;
13071;SDS011;6602;58.934;11.166;2023-05-02T18:38:56;6.00;;;1.00;;
13071;SDS011;6602;58.934;11.166;2023-05-02T18:43:59;6.73;;;1.20;;
13071;SDS011;6602;58.934;11.166;2023-05-02T18:49:02;6.00;;;0.80;;
13071;SDS011;6602;58.934;11.166;2023-05-02T18:54:06;5.13;;;0.90;;
13071;SDS011;6602;58.934;11.166;2023-05-02T18:59:07;4.33;;;1.03;;
13071;SDS011;6602;58.934;11.166;2023-05-02T19:04:17;4.80;;;1.23;;
13071;SDS011;6602;58.934;11.166;2023-05-02T19:09:21;6.00;;;1.00;;
13071;SDS011;6602;58.934;11.166;2023-05-02T19:14:22;5.33;;;1.50;;
13071;SDS011;6602;58.934;11.166;2023-05-02T19:19:39;6.70;;;1.30;;
13071;SDS011;6602;58.934;11.166;2023-05-02T19:24:56;6.83;;;1.10;;
13071;SDS011;6602;58.934;11.166;2023-05-02T19:35:12;1.33;;;0.73;;
13071;SDS011;6602;58.934;11.166;2023-05-02T19:40:16;5.80;;;1.80;;
13071;SDS011;6602;58.934;11.166;2023-05-02T19:45:35;4.80;;;1.20;;
13071;SDS011;6602;58.934;11.166;2023-05-02T19:50:49;2.70;;;0.93;;
13071;SDS011;6602;58.934;11.166;2023-05-02T19:55:59;4.80;;;1.23;;
13071;SDS011;6602;58.934;11.166;2023-05-02T20:01:19;6.27;;;1.00;;
13071;SDS011;6602;58.934;11.166;2023-05-02T20:06:20;1.83;;;0.77;;
13071;SDS011;6602;58.934;11.166;2023-05-02T20:11:23;3.57;;;0.93;;
13071;SDS011;6602;58.934;11.166;2023-05-02T20:16:28;1.33;;;0.77;;
13071;SDS011;6602;58.934;11.166;2023-05-02T20:21:32;0.93;;;0.60;;
13071;SDS011;6602;58.934;11.166;2023-05-02T20:26:34;6.83;;;1.30;;
13071;SDS011;6602;58.934;11.166;2023-05-02T20:31:36;2.20;;;0.87;;
13071;SDS011;6602;58.934;11.166;2023-05-02T20:36:40;1.80;;;0.60;;
13071;SDS011;6602;58.934;11.166;2023-05-02T20:41:44;3.53;;;0.90;;
13071;SDS011;6602;58.934;11.166;2023-05-02T20:46:51;2.77;;;1.07;;
13071;SDS011;6602;58.934;11.166;2023-05-02T20:52:02;4.27;;;1.13;;
13071;SDS011;6602;58.934;11.166;2023-05-02T20:57:04;2.73;;;1.10;;
13071;SDS011;6602;58.934;11.166;2023-05-02T21:02:08;3.90;;;0.97;;
13071;SDS011;6602;58.934;11.166;2023-05-02T21:07:12;3.83;;;1.20;;
13071;SDS011;6602;58.934;11.166;2023-05-02T21:12:25;2.40;;;1.20;;
13071;SDS011;6602;58.934;11.166;2023-05-02T21:17:30;3.00;;;1.33;;
13071;SDS011;6602;58.934;11.166;2023-05-02T21:22:37;3.13;;;1.37;;
13071;SDS011;6602;58.934;11.166;2023-05-02T21:27:44;5.03;;;1.60;;
13071;SDS011;6602;58.934;11.166;2023-05-02T21:33:03;6.93;;;1.60;;
13071;SDS011;6602;58.934;11.166;2023-05-02T21:38:08;3.83;;;1.67;;
13071;SDS011;6602;58.934;11.166;2023-05-02T21:43:11;6.73;;;2.20;;
13071;SDS011;6602;58.934;11.166;2023-05-02T21:48:13;2.90;;;1.40;;
13071;SDS011;6602;58.934;11.166;2023-05-02T21:53:17;2.00;;;1.30;;
13071;SDS011;6602;58.934;11.166;2023-05-02T21:58:31;3.07;;;1.20;;
13071;SDS011;6602;58.934;11.166;2023-05-02T22:03:36;4.63;;;1.63;;
13071;SDS011;6602;58.934;11.166;2023-05-02T22:08:40;3.00;;;1.67;;
13071;SDS011;6602;58.934;11.166;2023-05-02T22:13:45;2.83;;;1.47;;
13071;SDS011;6602;58.934;11.166;2023-05-02T22:18:58;5.00;;;1.77;;
13071;SDS011;6602;58.934;11.166;2023-05-02T22:24:00;6.13;;;1.63;;
13071;SDS011;6602;58.934;11.166;2023-05-02T22:29:14;5.33;;;2.00;;
13071;SDS011;6602;58.934;11.166;2023-05-02T22:34:17;6.40;;;1.90;;
13071;SDS011;6602;58.934;11.166;2023-05-02T22:39:18;3.93;;;2.03;;
13071;SDS011;6602;58.934;11.166;2023-05-02T22:44:29;4.63;;;1.57;;
13071;SDS011;6602;58.934;11.166;2023-05-02T22:49:35;2.13;;;1.67;;
13071;SDS011;6602;58.934;11.166;2023-05-02T22:54:40;5.50;;;2.10;;
13071;SDS011;6602;58.934;11.166;2023-05-02T22:59:42;3.90;;;1.53;;
13071;SDS011;6602;58.934;11.166;2023-05-02T23:04:43;3.90;;;1.67;;
13071;SDS011;6602;58.934;11.166;2023-05-02T23:10:02;4.53;;;1.93;;
13071;SDS011;6602;58.934;11.166;2023-05-02T23:15:18;4.60;;;1.73;;
13071;SDS011;6602;58.934;11.166;2023-05-02T23:20:38;5.27;;;1.63;;
13071;SDS011;6602;58.934;11.166;2023-05-02T23:25:48;6.27;;;1.40;;
13071;SDS011;6602;58.934;11.166;2023-05-02T23:31:01;3.90;;;1.70;;
13071;SDS011;6602;58.934;11.166;2023-05-02T23:36:04;2.37;;;1.43;;
13071;SDS011;6602;58.934;11.166;2023-05-02T23:41:06;4.30;;;1.77;;
13071;SDS011;6602;58.934;11.166;2023-05-02T23:46:08;4.67;;;1.70;;
13071;SDS011;6602;58.934;11.166;2023-05-02T23:51:11;4.17;;;1.23;;
13071;SDS011;6602;58.934;11.166;2023-05-02T23:56:27;5.00;;;1.87;;
